Time;durP1;ratioP1;P1;durP2;ratioP2;P2;SDS_P1;SDS_P2;PMS_P1;PMS_P2;Temp;Humidity;BMP_temperature;BMP_pressure;BME280_temperature;BME280_humidity;BME280_pressure;Samples;Min_cycle;Max_cycle;Signal;HPM_P1;HPM_P2
2021/10/14 00:00:42;;;;;;;3.83;2.55;;;;;;;10.66;58.28;102198.56;7990252;28;20094;-68
2021/10/14 00:04:32;;;;;;;5.18;2.22;;;;;;;10.65;58.18;102199.50;7987690;28;20056;-67
2021/10/14 00:08:23;;;;;;;6.03;2.30;;;;;;;10.65;58.06;102201.28;7979907;28;20045;-67
2021/10/14 00:12:13;;;;;;;4.72;2.40;;;;;;;10.65;58.24;102203.94;7979970;28;20573;-67
2021/10/14 00:16:04;;;;;;;7.00;1.80;;;;;;;10.61;58.06;102192.66;7986116;28;20104;-67
2021/10/14 00:19:55;;;;;;;6.97;2.15;;;;;;;10.63;57.99;102197.88;7951755;28;1062864;-67
2021/10/14 00:23:45;;;;;;;5.68;2.33;;;;;;;10.63;58.18;102196.09;7991066;28;20127;-67
2021/10/14 00:27:36;;;;;;;2.33;1.50;;;;;;;10.62;58.16;102190.91;7966721;28;20036;-67
2021/10/14 00:31:26;;;;;;;3.42;1.92;;;;;;;10.65;58.27;102193.41;7988456;28;20068;-67
2021/10/14 00:35:17;;;;;;;4.88;2.38;;;;;;;10.63;58.23;102188.22;7986742;28;20041;-67
2021/10/14 00:39:08;;;;;;;3.47;1.80;;;;;;;10.61;58.29;102187.41;7987535;28;20016;-67
2021/10/14 00:42:58;;;;;;;2.88;2.00;;;;;;;10.65;58.11;102191.59;7986373;28;20485;-67
2021/10/14 00:46:53;;;;;;;3.03;1.70;;;;;;;10.64;58.20;102187.31;7987349;28;20032;-67
2021/10/14 00:50:44;;;;;;;3.58;1.60;;;;;;;10.65;57.98;102185.53;7987091;28;20030;-67
2021/10/14 00:54:34;;;;;;;7.80;1.95;;;;;;;10.65;58.22;102191.59;7993870;28;20076;-67
2021/10/14 00:58:25;;;;;;;4.47;1.90;;;;;;;10.65;58.20;102185.53;7979506;28;20028;-67
2021/10/14 01:02:15;;;;;;;3.92;1.73;;;;;;;10.66;58.17;102179.31;7986639;28;20055;-67
2021/10/14 01:06:06;;;;;;;4.43;2.38;;;;;;;10.66;58.20;102177.56;7976012;28;20040;-67
2021/10/14 01:09:57;;;;;;;4.82;1.58;;;;;;;10.65;58.00;102169.75;7976073;28;20037;-67
2021/10/14 01:13:47;;;;;;;4.30;1.85;;;;;;;10.63;58.03;102164.56;7974492;28;20042;-67
2021/10/14 01:17:38;;;;;;;5.63;1.60;;;;;;;10.62;58.22;102154.13;7986240;28;20033;-67
2021/10/14 01:21:28;;;;;;;3.47;2.00;;;;;;;10.61;58.08;102150.63;7975335;28;20712;-68
2021/10/14 01:25:19;;;;;;;3.35;2.20;;;;;;;10.57;58.07;102149.06;7985420;28;20685;-67
2021/10/14 01:29:11;;;;;;;7.45;2.08;;;;;;;10.58;58.03;102148.16;7987176;28;20572;-67
2021/10/14 01:33:01;;;;;;;3.60;1.75;;;;;;;10.59;58.33;102144.59;7987135;28;20108;-67
2021/10/14 01:36:52;;;;;;;6.30;1.80;;;;;;;10.59;58.17;102146.38;7987562;28;20455;-67
2021/10/14 01:40:42;;;;;;;4.75;2.10;;;;;;;10.59;58.11;102149.88;7970059;28;20037;-68
2021/10/14 01:44:33;;;;;;;4.38;2.15;;;;;;;10.58;58.06;102144.66;7986749;28;20047;-67
2021/10/14 01:48:23;;;;;;;6.15;1.95;;;;;;;10.59;58.11;102149.88;7971757;28;20116;-67
2021/10/14 01:52:14;;;;;;;4.95;1.95;;;;;;;10.59;57.99;102146.38;7985815;28;20090;-67
2021/10/14 01:56:05;;;;;;;3.33;1.67;;;;;;;10.56;58.07;102147.38;7982156;28;20121;-67
2021/10/14 01:59:55;;;;;;;3.67;1.88;;;;;;;10.57;58.00;102150.88;7987280;28;20033;-67
2021/10/14 02:03:46;;;;;;;3.05;1.63;;;;;;;10.55;58.00;102139.56;7975856;28;21619;-67
2021/10/14 02:07:37;;;;;;;9.18;2.20;;;;;;;10.55;58.03;102139.56;7961351;28;20486;-67
2021/10/14 02:11:27;;;;;;;2.97;1.77;;;;;;;10.55;58.07;102139.56;7986165;28;20029;-68
2021/10/14 02:15:18;;;;;;;2.50;2.00;;;;;;;10.53;58.09;102136.16;7976020;28;20772;-67
2021/10/14 02:19:08;;;;;;;3.50;1.73;;;;;;;10.51;57.95;102138.00;7974638;28;20401;-67
2021/10/14 02:22:59;;;;;;;6.07;2.00;;;;;;;10.47;58.31;102134.63;7985058;28;20036;-67
2021/10/14 02:26:49;;;;;;;3.45;2.05;;;;;;;10.48;58.06;102140.75;7987975;28;20045;-67
2021/10/14 02:30:40;;;;;;;4.07;2.08;;;;;;;10.45;58.11;102136.44;7980876;28;20033;-67
2021/10/14 02:34:30;;;;;;;3.85;1.90;;;;;;;10.44;58.07;102139.16;7986683;28;20121;-67
2021/10/14 02:38:21;;;;;;;3.28;2.10;;;;;;;10.41;58.08;102141.91;7984938;28;20036;-67
2021/10/14 02:42:12;;;;;;;3.78;1.75;;;;;;;10.39;58.11;102138.53;7967117;28;20123;-67
2021/10/14 02:46:02;;;;;;;4.72;2.15;;;;;;;10.34;57.91;102143.97;7984458;28;20037;-67
2021/10/14 02:49:53;;;;;;;3.22;1.75;;;;;;;10.28;58.05;102125.84;7984458;28;20029;-67
2021/10/14 02:53:43;;;;;;;6.70;2.03;;;;;;;10.25;58.09;102129.47;7984751;28;20055;-67
2021/10/14 02:57:34;;;;;;;3.40;2.10;;;;;;;10.22;58.23;102131.41;7981852;28;20025;-67
2021/10/14 03:01:24;;;;;;;6.47;2.50;;;;;;;10.19;58.24;102132.41;7981981;28;20037;-67
2021/10/14 03:05:15;;;;;;;5.53;2.00;;;;;;;10.17;58.19;102136.00;7988472;28;20026;-67
2021/10/14 03:09:06;;;;;;;4.18;2.30;;;;;;;10.14;58.10;102118.63;7991323;28;20037;-67
2021/10/14 03:12:56;;;;;;;3.10;1.90;;;;;;;10.09;58.26;102123.22;7990623;28;20039;-67
2021/10/14 03:16:47;;;;;;;11.65;2.13;;;;;;;10.09;58.09;102125.84;7974841;28;20034;-67
2021/10/14 03:20:37;;;;;;;4.63;2.10;;;;;;;10.08;58.05;102124.13;7989976;28;20037;-67
2021/10/14 03:24:28;;;;;;;5.32;2.15;;;;;;;10.08;58.11;102121.50;7968404;28;20034;-67
2021/10/14 03:28:18;;;;;;;5.13;2.08;;;;;;;10.11;58.18;102128.41;7986446;28;20033;-67
2021/10/14 03:32:09;;;;;;;3.90;2.10;;;;;;;10.12;58.11;102128.31;7990763;28;20029;-67
2021/10/14 03:35:59;;;;;;;4.38;2.05;;;;;;;10.12;58.31;102124.84;7991088;28;20807;-67
2021/10/14 03:39:50;;;;;;;3.88;2.30;;;;;;;10.11;58.25;102125.78;7986703;28;20051;-67
2021/10/14 03:43:41;;;;;;;6.78;3.05;;;;;;;10.12;58.14;102127.47;7990180;28;20062;-67
2021/10/14 03:47:31;;;;;;;7.28;2.38;;;;;;;10.09;58.20;102128.47;7990416;28;20429;-67
2021/10/14 03:51:22;;;;;;;4.38;2.25;;;;;;;10.08;58.25;102134.63;7983415;28;20548;-67
2021/10/14 03:55:13;;;;;;;4.32;2.30;;;;;;;10.09;58.13;102132.84;7994798;28;20246;-67
2021/10/14 03:59:03;;;;;;;6.32;2.45;;;;;;;10.06;58.38;102131.22;7983792;28;20022;-67
2021/10/14 04:02:54;;;;;;;4.32;2.22;;;;;;;10.05;58.35;102126.91;7981380;28;20234;-67
2021/10/14 04:06:45;;;;;;;2.92;1.88;;;;;;;10.06;58.71;102123.34;7971983;28;20047;-67
2021/10/14 04:10:37;;;;;;;6.40;2.13;;;;;;;10.04;58.25;102113.81;7973356;28;20032;-67
2021/10/14 04:14:29;;;;;;;8.18;2.67;;;;;;;10.10;58.26;102126.69;7976735;28;20025;-67
2021/10/14 04:18:19;;;;;;;3.78;2.10;;;;;;;10.10;58.30;102116.19;7987359;28;20059;-67
2021/10/14 04:22:10;;;;;;;5.80;2.30;;;;;;;10.10;58.25;102113.56;7988414;28;20041;-67
2021/10/14 04:26:00;;;;;;;3.20;2.25;;;;;;;10.06;58.33;102110.22;7988121;28;20037;-67
2021/10/14 04:29:51;;;;;;;7.72;2.75;;;;;;;10.11;58.30;102116.13;7983865;28;20045;-67
2021/10/14 04:33:41;;;;;;;7.13;2.60;;;;;;;10.10;58.16;102114.41;7987608;28;20595;-67
2021/10/14 04:37:32;;;;;;;4.45;2.70;;;;;;;10.11;58.30;102124.00;7987308;28;20028;-67
2021/10/14 04:41:23;;;;;;;5.18;2.50;;;;;;;10.08;58.31;102120.66;7988584;28;20043;-67
2021/10/14 04:45:14;;;;;;;6.95;2.70;;;;;;;10.11;58.22;102126.63;7988313;28;20029;-67
2021/10/14 04:49:04;;;;;;;6.30;3.00;;;;;;;10.11;58.30;102120.53;7977315;28;20020;-67
2021/10/14 04:52:55;;;;;;;5.88;2.65;;;;;;;10.12;58.21;102123.06;7986492;28;20477;-67
2021/10/14 04:56:46;;;;;;;4.45;2.70;;;;;;;10.11;58.35;102113.50;7981904;28;20029;-67
2021/10/14 05:00:36;;;;;;;7.82;3.47;;;;;;;10.08;58.43;102111.00;7987095;28;20482;-67
2021/10/14 05:04:27;;;;;;;7.28;3.95;;;;;;;10.14;58.39;102112.50;7986868;28;20044;-67
2021/10/14 05:08:17;;;;;;;8.05;3.63;;;;;;;10.14;58.44;102109.88;7987752;28;20038;-67
2021/10/14 05:12:08;;;;;;;5.18;3.72;;;;;;;10.18;58.26;102108.81;7986067;28;20029;-67
2021/10/14 05:15:59;;;;;;;9.07;4.43;;;;;;;10.18;58.41;102108.81;7985438;28;20040;-67
2021/10/14 05:19:49;;;;;;;8.23;4.78;;;;;;;10.20;58.34;102118.31;7976916;28;20031;-67
2021/10/14 05:23:40;;;;;;;6.63;4.15;;;;;;;10.22;58.44;102111.25;7973324;28;20687;-67
2021/10/14 05:27:30;;;;;;;7.72;4.53;;;;;;;10.23;58.45;102107.72;7971218;28;20033;-67
2021/10/14 05:31:21;;;;;;;11.20;4.60;;;;;;;10.27;58.40;102107.56;7984796;28;20028;-67
2021/10/14 05:35:13;;;;;;;10.65;3.67;;;;;;;10.27;58.36;102113.66;7954802;28;20033;-67
2021/10/14 05:39:03;;;;;;;9.50;4.63;;;;;;;10.25;58.41;102108.47;7956033;28;20037;-67
2021/10/14 05:42:54;;;;;;;8.85;3.92;;;;;;;10.25;58.42;102105.84;7966991;28;20037;-67
2021/10/14 05:46:45;;;;;;;6.68;4.18;;;;;;;10.25;58.34;102111.09;7971618;28;20124;-67
2021/10/14 05:50:35;;;;;;;9.68;5.65;;;;;;;10.19;58.48;102108.75;7980828;28;20741;-67
2021/10/14 05:54:26;;;;;;;9.57;5.05;;;;;;;10.21;58.52;102112.16;7985680;28;20039;-67
2021/10/14 05:58:16;;;;;;;8.32;5.68;;;;;;;10.20;58.62;102107.81;7986877;28;20021;-67
2021/10/14 06:02:07;;;;;;;10.27;5.40;;;;;;;10.20;58.85;102117.47;7960555;28;20052;-67
2021/10/14 06:05:57;;;;;;;8.45;5.20;;;;;;;10.19;58.69;102114.03;7976407;28;20033;-67
2021/10/14 06:09:48;;;;;;;10.15;5.38;;;;;;;10.20;58.68;102120.09;7982466;28;20043;-67
2021/10/14 06:13:39;;;;;;;14.23;6.70;;;;;;;10.17;58.66;102115.84;7985595;28;20040;-67
2021/10/14 06:17:29;;;;;;;10.00;5.78;;;;;;;10.16;58.76;102108.03;7984127;28;20071;-67
2021/10/14 06:21:20;;;;;;;8.68;5.43;;;;;;;10.15;58.85;102114.22;7985226;28;20033;-67
2021/10/14 06:25:11;;;;;;;10.15;6.10;;;;;;;10.17;58.87;102107.13;7974154;28;20029;-67
2021/10/14 06:29:01;;;;;;;9.57;4.80;;;;;;;10.16;58.82;102108.03;7976984;28;20040;-67
2021/10/14 06:32:52;;;;;;;10.05;4.65;;;;;;;10.13;58.83;102109.03;7985087;28;20060;-67
2021/10/14 06:36:42;;;;;;;8.00;5.03;;;;;;;10.13;59.01;102098.53;7984685;28;20166;-67
2021/10/14 06:40:33;;;;;;;8.15;5.07;;;;;;;10.12;58.89;102101.22;7987577;28;20393;-67
2021/10/14 06:44:24;;;;;;;12.60;5.70;;;;;;;10.09;59.09;102099.59;7991430;28;20887;-67
2021/10/14 06:48:14;;;;;;;10.38;4.95;;;;;;;10.06;59.03;102094.47;7985530;28;20040;-67
2021/10/14 06:52:05;;;;;;;8.05;4.93;;;;;;;10.02;59.20;102087.66;7974729;28;20474;-67
2021/10/14 06:55:55;;;;;;;6.90;4.18;;;;;;;10.04;59.23;102088.44;7987873;28;20670;-67
2021/10/14 06:59:46;;;;;;;10.60;4.88;;;;;;;10.06;59.27;102091.84;7993310;28;20037;-67
2021/10/14 07:03:36;;;;;;;8.48;4.82;;;;;;;10.09;59.28;102089.09;7995787;28;20025;-67
2021/10/14 07:07:27;;;;;;;10.43;4.82;;;;;;;10.12;59.17;102085.44;7980634;28;20042;-67
2021/10/14 07:11:17;;;;;;;12.75;5.50;;;;;;;10.12;59.27;102095.94;7999177;28;20021;-67
2021/10/14 07:15:09;;;;;;;9.40;4.88;;;;;;;10.09;59.17;102078.56;7995605;28;20047;-67
2021/10/14 07:19:00;;;;;;;8.27;4.35;;;;;;;10.15;58.89;102090.59;8006057;28;20626;-67
2021/10/14 07:22:50;;;;;;;9.63;5.32;;;;;;;10.15;59.25;102090.59;8006148;28;20025;-67
2021/10/14 07:26:41;;;;;;;10.15;4.25;;;;;;;10.15;59.20;102094.06;7997605;28;20792;-67
2021/10/14 07:30:37;;;;;;;7.60;4.20;;;;;;;10.09;59.30;102077.72;8006268;28;20603;-67
2021/10/14 07:34:27;;;;;;;7.38;4.50;;;;;;;10.16;59.46;102090.50;8005822;28;20446;-67
2021/10/14 07:38:18;;;;;;;7.93;4.25;;;;;;;10.19;59.46;102097.41;8005741;28;20029;-67
2021/10/14 07:42:09;;;;;;;8.80;4.88;;;;;;;10.21;59.52;102101.66;7988013;28;20112;-67
2021/10/14 07:46:01;;;;;;;9.40;5.05;;;;;;;10.23;59.40;102101.59;7984782;28;20081;-67
2021/10/14 07:49:51;;;;;;;6.60;3.78;;;;;;;10.26;59.34;102098.81;7985393;28;20042;-67
2021/10/14 07:53:42;;;;;;;11.18;4.72;;;;;;;10.25;59.58;102100.59;7970024;28;20056;-67
2021/10/14 07:57:32;;;;;;;9.55;4.55;;;;;;;10.23;59.43;102096.34;7983770;28;20033;-67
2021/10/14 08:01:23;;;;;;;8.70;4.22;;;;;;;10.27;59.58;102104.94;7981542;28;20029;-67
2021/10/14 08:05:17;;;;;;;11.23;4.68;;;;;;;10.27;59.53;102111.03;7976519;28;20107;-67
2021/10/14 08:09:08;;;;;;;6.53;3.97;;;;;;;10.28;59.65;102117.16;7998244;28;20036;-67
2021/10/14 08:12:58;;;;;;;6.90;4.30;;;;;;;10.28;59.45;102117.16;7967170;28;20037;-67
2021/10/14 08:16:49;;;;;;;10.38;4.75;;;;;;;10.24;59.63;102106.75;7993982;28;20081;-67
2021/10/14 08:20:39;;;;;;;7.28;4.30;;;;;;;10.31;59.67;102115.22;7960977;28;20433;-67
2021/10/14 08:24:30;;;;;;;9.52;4.43;;;;;;;10.32;59.56;102122.19;7970404;28;20090;-67
2021/10/14 08:28:23;;;;;;;13.07;5.00;;;;;;;10.33;59.60;102117.78;8004137;28;20766;-67
2021/10/14 08:32:14;;;;;;;6.05;4.15;;;;;;;10.33;59.50;102118.63;7987471;28;20482;-67
2021/10/14 08:36:04;;;;;;;7.53;4.60;;;;;;;10.33;59.70;102105.50;7993678;28;20037;-67
2021/10/14 08:39:56;;;;;;;8.35;5.13;;;;;;;10.35;59.78;102103.66;8004374;28;20477;-67
2021/10/14 08:43:47;;;;;;;9.85;4.95;;;;;;;10.39;59.70;102112.25;8003881;28;20068;-67
2021/10/14 08:47:39;;;;;;;10.55;4.82;;;;;;;10.35;59.77;102102.81;7993474;28;20113;-67
2021/10/14 08:51:30;;;;;;;10.27;4.60;;;;;;;10.39;59.66;102109.63;7951906;28;20029;-67
2021/10/14 08:55:21;;;;;;;9.57;5.28;;;;;;;10.41;59.74;102113.03;7945263;28;20079;-67
2021/10/14 08:59:13;;;;;;;8.57;4.85;;;;;;;10.41;59.90;102111.25;7959050;28;20637;-67
2021/10/14 09:03:28;;;;;;;8.63;5.72;;;;;;;10.43;59.99;102108.56;7950423;28;20032;-67
2021/10/14 09:07:21;;;;;;;9.00;4.50;;;;;;;10.40;60.04;102101.69;7992389;28;20025;-67
2021/10/14 09:11:23;;;;;;;7.00;4.20;;;;;;;10.55;60.11;102105.41;7949987;28;20063;-67
2021/10/14 09:15:15;;;;;;;5.82;3.95;;;;;;;10.61;59.98;102107.75;7969923;28;20063;-66
2021/10/14 09:19:13;;;;;;;9.68;4.95;;;;;;;10.66;60.25;102111.00;7974146;28;20522;-67
2021/10/14 09:23:21;;;;;;;7.47;4.53;;;;;;;10.73;60.19;102103.69;7976878;28;20029;-66
2021/10/14 09:27:18;;;;;;;9.13;5.10;;;;;;;10.81;60.20;102102.41;7976525;28;20041;-67
2021/10/14 09:31:09;;;;;;;10.25;5.05;;;;;;;10.87;60.21;102102.09;7976271;28;20037;-65
2021/10/14 09:35:00;;;;;;;8.50;4.95;;;;;;;10.94;60.25;102095.63;7980678;28;20060;-66
2021/10/14 09:38:54;;;;;;;9.45;5.18;;;;;;;10.99;60.28;102096.25;7972915;28;20045;-65
2021/10/14 09:42:54;;;;;;;7.78;5.07;;;;;;;11.01;60.25;102091.78;7961663;28;20033;-67
2021/10/14 09:46:51;;;;;;;9.93;4.45;;;;;;;11.01;60.15;102097.03;7965241;28;20040;-65
2021/10/14 09:50:45;;;;;;;7.82;4.82;;;;;;;11.03;60.12;102095.19;7966533;28;20032;-67
2021/10/14 09:54:35;;;;;;;8.73;4.80;;;;;;;11.06;60.20;102092.41;7966504;28;20384;-65
2021/10/14 09:58:26;;;;;;;7.45;4.28;;;;;;;11.11;60.28;102095.66;7963549;28;20478;-66
2021/10/14 10:02:17;;;;;;;7.25;4.30;;;;;;;11.12;60.06;102091.25;7953059;28;20041;-66
2021/10/14 10:06:08;;;;;;;9.25;4.55;;;;;;;11.19;60.15;102094.44;7965759;28;20048;-67
2021/10/14 10:09:59;;;;;;;6.57;4.40;;;;;;;11.19;60.09;102086.56;7955946;28;20116;-67
2021/10/14 10:13:54;;;;;;;7.47;4.07;;;;;;;11.24;60.16;102079.25;7970590;28;20037;-67
2021/10/14 10:17:44;;;;;;;6.63;3.88;;;;;;;11.26;60.09;102083.53;7980680;28;20116;-67
2021/10/14 10:21:35;;;;;;;6.57;3.83;;;;;;;11.27;60.17;102082.63;7974518;28;20037;-67
2021/10/14 10:25:25;;;;;;;7.43;3.70;;;;;;;11.29;60.05;102083.38;7976713;28;20033;-67
2021/10/14 10:29:19;;;;;;;4.75;3.75;;;;;;;11.32;60.01;102080.59;7970788;28;20060;-67
2021/10/14 10:33:09;;;;;;;8.65;4.55;;;;;;;11.36;60.16;102081.28;7946400;28;20041;-67
2021/10/14 10:37:11;;;;;;;9.05;4.50;;;;;;;11.38;60.09;102087.34;7962303;28;20533;-67
2021/10/14 10:41:03;;;;;;;7.43;3.95;;;;;;;11.39;60.27;102076.75;7943443;28;20041;-67
2021/10/14 10:45:04;;;;;;;9.95;4.88;;;;;;;11.47;60.08;102071.09;7966623;28;20037;-67
2021/10/14 10:49:17;;;;;;;7.80;3.97;;;;;;;11.47;60.21;102077.19;7979972;28;20021;-67
2021/10/14 10:53:17;;;;;;;6.50;3.65;;;;;;;11.50;60.03;102076.19;7979917;28;20025;-67
2021/10/14 10:57:47;;;;;;;6.15;3.35;;;;;;;11.54;60.00;102069.84;7961008;28;20036;-67
2021/10/14 11:01:37;;;;;;;8.48;4.40;;;;;;;11.58;60.17;102067.00;7981222;28;20036;-67
2021/10/14 11:05:39;;;;;;;10.45;4.13;;;;;;;11.59;60.17;102049.44;7960419;28;20032;-67
2021/10/14 11:09:41;;;;;;;7.10;3.58;;;;;;;11.63;60.10;102048.34;7972267;28;20029;-67
2021/10/14 11:13:33;;;;;;;8.40;3.38;;;;;;;11.71;60.13;102054.06;7975800;28;20513;-67
2021/10/14 11:17:25;;;;;;;5.85;3.63;;;;;;;11.75;60.10;102046.84;7975419;28;20018;-67
2021/10/14 11:21:21;;;;;;;6.72;3.97;;;;;;;11.77;60.10;102042.38;7938264;28;20502;-67
2021/10/14 11:25:15;;;;;;;9.48;3.85;;;;;;;11.84;60.09;102034.06;7966322;28;20037;-67
2021/10/14 11:29:11;;;;;;;5.95;3.97;;;;;;;11.91;59.98;102030.16;7965487;28;20553;-67
2021/10/14 11:33:09;;;;;;;6.38;4.00;;;;;;;11.93;60.04;102017.78;7955019;28;20064;-67
2021/10/14 11:37:05;;;;;;;5.90;3.47;;;;;;;12.04;60.18;102023.31;7981129;28;20025;-67
2021/10/14 11:40:56;;;;;;;8.60;3.95;;;;;;;12.14;60.18;102013.13;7971741;28;20025;-67
2021/10/14 11:44:55;;;;;;;6.82;3.75;;;;;;;12.24;60.17;102014.31;7967049;28;20161;-68
2021/10/14 11:48:45;;;;;;;7.40;4.30;;;;;;;12.34;60.35;102012.03;7964130;28;20038;-68
2021/10/14 11:52:36;;;;;;;8.15;3.88;;;;;;;12.39;60.25;102000.28;7975895;28;20033;-67
2021/10/14 11:56:27;;;;;;;5.57;3.50;;;;;;;12.50;60.34;101987.38;7984128;28;20493;-68
2021/10/14 12:00:17;;;;;;;7.63;3.97;;;;;;;12.62;60.23;101983.22;7980915;28;20033;-67
2021/10/14 12:04:08;;;;;;;9.88;4.38;;;;;;;12.71;60.20;101974.78;7960652;28;20043;-67
2021/10/14 12:08:00;;;;;;;6.28;3.75;;;;;;;12.80;60.14;101968.13;7983429;28;20044;-67
2021/10/14 12:11:59;;;;;;;6.85;3.80;;;;;;;12.88;60.10;101963.25;7964486;28;20044;-67
2021/10/14 12:15:49;;;;;;;7.40;3.83;;;;;;;12.95;60.25;101961.94;7983059;28;20033;-67
2021/10/14 12:19:50;;;;;;;8.35;4.78;;;;;;;13.02;59.79;101957.16;7976967;28;20032;-67
2021/10/14 12:23:41;;;;;;;8.48;4.18;;;;;;;13.05;60.06;101949.94;7956320;28;20033;-67
2021/10/14 12:27:55;;;;;;;6.60;3.50;;;;;;;13.11;59.92;101948.69;7966097;28;20045;-67
2021/10/14 12:31:47;;;;;;;6.22;4.00;;;;;;;13.17;59.82;101946.56;7963891;28;20025;-67
2021/10/14 12:35:39;;;;;;;6.47;3.53;;;;;;;13.22;59.69;101935.72;7964580;28;20705;-67
2021/10/14 12:39:30;;;;;;;7.80;4.35;;;;;;;13.25;59.96;101938.19;7957090;28;20033;-67
2021/10/14 12:43:26;;;;;;;5.57;3.85;;;;;;;13.20;59.73;101922.63;7977724;28;20032;-68
2021/10/14 12:47:26;;;;;;;9.23;4.82;;;;;;;13.33;59.70;101941.19;7981126;28;20092;-68
2021/10/14 12:51:26;;;;;;;6.22;3.97;;;;;;;13.36;59.78;101927.81;7978381;28;20032;-68
2021/10/14 12:55:16;;;;;;;5.78;3.50;;;;;;;13.36;59.58;101925.16;7974590;28;20032;-68
2021/10/14 12:59:08;;;;;;;7.65;4.18;;;;;;;13.39;59.65;101920.53;7958764;28;20021;-68
2021/10/14 13:02:59;;;;;;;8.32;3.85;;;;;;;13.42;59.53;101914.25;7982920;28;20778;-67
2021/10/14 13:06:50;;;;;;;7.47;3.90;;;;;;;13.42;59.59;101907.19;7953241;28;20660;-67
2021/10/14 13:10:40;;;;;;;9.55;3.63;;;;;;;13.51;59.70;101907.56;7952576;28;20705;-68
2021/10/14 13:14:37;;;;;;;7.60;3.90;;;;;;;13.54;59.55;101907.38;7914058;28;20037;-67
2021/10/14 13:18:29;;;;;;;5.72;3.75;;;;;;;13.54;59.39;101907.38;7971575;28;20025;-67
2021/10/14 13:22:19;;;;;;;6.15;4.25;;;;;;;13.49;59.15;101907.63;7981617;28;20817;-65
2021/10/14 13:26:10;;;;;;;5.40;3.35;;;;;;;13.44;59.28;101907.06;7976013;28;20036;-68
2021/10/14 13:30:00;;;;;;;7.38;4.05;;;;;;;13.44;59.36;101901.78;7972800;28;20560;-68
2021/10/14 13:33:52;;;;;;;11.18;4.18;;;;;;;13.47;59.51;101903.41;7976657;28;20049;-65
2021/10/14 13:37:44;;;;;;;6.15;3.92;;;;;;;13.51;59.44;101899.63;7978404;28;20037;-68
2021/10/14 13:41:35;;;;;;;6.38;3.78;;;;;;;13.49;59.33;101886.53;7960352;28;20048;-68
2021/10/14 13:45:25;;;;;;;6.00;3.28;;;;;;;13.56;59.55;101890.50;7972534;28;20025;-68
2021/10/14 13:49:16;;;;;;;6.32;3.35;;;;;;;13.57;59.65;101889.56;7981778;28;20094;-68
2021/10/14 13:53:07;;;;;;;5.10;2.92;;;;;;;13.58;58.94;101880.69;7981842;28;20093;-68
2021/10/14 13:56:59;;;;;;;12.93;3.78;;;;;;;13.56;59.20;101868.53;7975959;28;20087;-68
2021/10/14 14:00:50;;;;;;;5.07;3.28;;;;;;;13.62;58.89;101876.94;7978031;28;20087;-68
2021/10/14 14:04:40;;;;;;;5.28;3.30;;;;;;;13.64;58.95;101872.38;7977951;28;20389;-68
2021/10/14 14:08:31;;;;;;;5.38;3.25;;;;;;;13.61;59.01;101855.88;7980314;28;20047;-68
2021/10/14 14:12:22;;;;;;;4.85;2.55;;;;;;;13.66;58.84;101859.94;7975737;28;20039;-68
2021/10/14 14:16:12;;;;;;;7.10;3.80;;;;;;;13.70;59.11;101852.69;7981468;28;20030;-68
2021/10/14 14:20:03;;;;;;;7.43;3.45;;;;;;;13.69;58.88;101850.97;7976596;28;20033;-68
2021/10/14 14:23:57;;;;;;;5.20;3.25;;;;;;;13.75;59.06;101854.09;7975562;28;20037;-68
2021/10/14 14:27:47;;;;;;;3.88;2.88;;;;;;;13.77;58.94;101846.03;7974332;28;20128;-68
2021/10/14 14:31:38;;;;;;;7.97;3.75;;;;;;;13.77;58.73;101852.19;7975202;28;20029;-68
2021/10/14 14:35:29;;;;;;;6.03;3.90;;;;;;;13.76;58.79;101847.84;7977867;28;20033;-68
2021/10/14 14:39:19;;;;;;;3.50;2.53;;;;;;;13.76;58.57;101846.97;7976010;28;20481;-68
2021/10/14 14:43:10;;;;;;;4.43;3.10;;;;;;;13.75;58.53;101837.38;7954008;28;20037;-68
2021/10/14 14:47:01;;;;;;;5.03;2.95;;;;;;;13.75;58.49;101835.59;7961745;28;20029;-68
2021/10/14 14:50:52;;;;;;;4.38;2.83;;;;;;;13.74;58.47;101833.91;7973710;28;20065;-68
2021/10/14 14:54:43;;;;;;;5.18;2.65;;;;;;;13.71;58.54;101835.88;7952789;28;20041;-68
2021/10/14 14:58:33;;;;;;;4.20;2.80;;;;;;;13.70;58.65;101826.28;7975734;28;20589;-68
2021/10/14 15:02:24;;;;;;;9.02;3.25;;;;;;;13.65;58.49;101823.91;7980355;28;20459;-68
2021/10/14 15:06:15;;;;;;;8.48;2.83;;;;;;;13.70;58.51;101826.28;7964064;28;20656;-67
2021/10/14 15:10:08;;;;;;;3.30;2.30;;;;;;;13.70;58.21;101823.63;7960336;28;20034;-67
2021/10/14 15:13:59;;;;;;;5.63;2.83;;;;;;;13.64;58.18;101816.09;7967483;28;20040;-67
2021/10/14 15:17:49;;;;;;;5.22;2.80;;;;;;;13.65;58.29;101815.16;7974058;28;20053;-67
2021/10/14 15:21:40;;;;;;;3.67;2.55;;;;;;;13.69;58.34;101824.56;7959394;28;20033;-67
2021/10/14 15:25:31;;;;;;;4.45;2.55;;;;;;;13.67;57.99;101813.28;7975473;28;20024;-67
2021/10/14 15:29:22;;;;;;;3.83;2.35;;;;;;;13.65;58.09;101809.88;7966865;28;20042;-67
2021/10/14 15:33:12;;;;;;;3.38;2.33;;;;;;;13.62;57.99;101804.78;7969776;28;20051;-67
2021/10/14 15:37:03;;;;;;;3.15;2.17;;;;;;;13.57;57.83;101796.31;7936053;28;20044;-67
2021/10/14 15:40:54;;;;;;;4.35;2.15;;;;;;;13.59;57.94;101795.28;7952756;28;20132;-67
2021/10/14 15:44:45;;;;;;;3.13;2.30;;;;;;;13.56;57.64;101797.25;7964113;28;20515;-67
2021/10/14 15:48:36;;;;;;;7.47;2.17;;;;;;;13.57;57.69;101797.16;7930233;28;20140;-67
2021/10/14 15:52:26;;;;;;;2.55;1.63;;;;;;;13.56;57.62;101797.25;7975116;28;20029;-67
2021/10/14 15:56:17;;;;;;;2.70;1.83;;;;;;;13.53;57.62;101794.81;7979600;28;20025;-67
2021/10/14 16:00:08;;;;;;;4.32;1.42;;;;;;;13.50;57.52;101792.34;7968231;28;20035;-67
2021/10/14 16:04:03;;;;;;;4.70;1.83;;;;;;;13.46;57.55;101794.34;7962274;28;20831;-67
2021/10/14 16:07:53;;;;;;;3.30;2.10;;;;;;;13.45;57.46;101790.00;7981648;28;20049;-67
2021/10/14 16:11:44;;;;;;;3.60;1.85;;;;;;;13.43;57.30;101789.22;7980068;28;20071;-67
2021/10/14 16:15:34;;;;;;;3.58;1.67;;;;;;;13.39;57.36;101788.59;7953881;28;20046;-68
2021/10/14 16:19:25;;;;;;;7.85;1.83;;;;;;;13.36;57.18;101783.50;7974219;28;20040;-67
2021/10/14 16:23:16;;;;;;;2.92;1.65;;;;;;;13.31;57.51;101780.31;7971916;28;20120;-67
2021/10/14 16:27:08;;;;;;;2.00;1.55;;;;;;;13.26;57.45;101777.09;7958510;28;20506;-68
2021/10/14 16:31:04;;;;;;;2.72;1.90;;;;;;;13.24;57.19;101784.28;7973215;28;20134;-68
2021/10/14 16:34:54;;;;;;;4.35;1.98;;;;;;;13.21;57.04;101775.72;7970728;28;20120;-68
2021/10/14 16:38:45;;;;;;;5.28;1.80;;;;;;;13.14;57.37;101769.97;7957892;28;20051;-67
2021/10/14 16:42:39;;;;;;;2.35;1.92;;;;;;;13.15;57.39;101778.72;7974492;28;20041;-68
2021/10/14 16:46:29;;;;;;;2.33;1.48;;;;;;;13.10;57.27;101771.09;7981772;28;20034;-68
2021/10/14 16:50:20;;;;;;;5.47;2.30;;;;;;;13.12;57.40;101765.72;7968630;28;20029;-67
2021/10/14 16:54:15;;;;;;;3.50;2.25;;;;;;;13.07;57.09;101765.16;7959755;28;20021;-70
2021/10/14 16:58:06;;;;;;;3.40;2.08;;;;;;;13.10;57.35;101763.19;7969946;28;20037;-71
2021/10/14 17:01:58;;;;;;;2.88;1.88;;;;;;;13.09;57.14;101764.16;7973167;28;20446;-71
2021/10/14 17:05:50;;;;;;;2.72;1.92;;;;;;;13.06;57.29;101766.97;7969774;28;20064;-71
2021/10/14 17:09:42;;;;;;;3.13;1.73;;;;;;;13.04;57.13;101768.00;7968555;28;20070;-72
2021/10/14 17:13:34;;;;;;;3.95;2.05;;;;;;;12.98;57.18;101767.44;7979462;28;20056;-72
2021/10/14 17:17:26;;;;;;;4.03;1.90;;;;;;;12.95;56.88;101767.63;7979685;28;20071;-68
2021/10/14 17:21:36;;;;;;;3.53;1.88;;;;;;;12.87;56.99;101769.03;7958090;28;20506;-67
2021/10/14 17:37:59;;;;;;;3.78;1.85;;;;;;;12.86;57.30;101773.47;7977314;28;20029;-72
2021/10/14 17:41:52;;;;;;;3.00;2.20;;;;;;;12.84;57.21;101777.16;7974037;28;20056;-71
2021/10/14 17:46:03;;;;;;;3.65;2.28;;;;;;;12.80;57.13;101765.94;7970291;28;20033;-68
2021/10/14 17:49:55;;;;;;;5.40;2.60;;;;;;;12.81;57.14;101772.91;7953223;28;20407;-67
2021/10/14 17:53:47;;;;;;;5.13;2.22;;;;;;;12.78;57.18;101765.19;7963233;28;20041;-67
2021/10/14 17:57:39;;;;;;;4.95;2.53;;;;;;;12.79;57.17;101766.88;7976203;28;20053;-67
2021/10/14 18:01:31;;;;;;;6.88;2.70;;;;;;;12.76;57.06;101759.16;7975470;28;20026;-68
2021/10/14 18:41:54;;;;;;;5.88;3.00;;;;;;;12.66;57.12;101704.44;7974320;28;20033;-71
2021/10/14 18:45:52;;;;;;;5.20;2.90;;;;;;;12.69;56.73;101707.75;7974889;28;20035;-72